Time;durP1;ratioP1;P1;durP2;ratioP2;P2;SDS_P1;SDS_P2;PMS_P1;PMS_P2;Temp;Humidity;BMP_temperature;BMP_pressure;BME280_temperature;BME280_humidity;BME280_pressure;Samples;Min_cycle;Max_cycle;Signal;HPM_P1;HPM_P2
2024/02/12 00:01:00;;;;;;;2.85;1.25;;;7.80;59.70;;;;;;5075014;28;20185;-69
2024/02/12 00:03:33;;;;;;;2.70;1.00;;;7.80;59.20;;;;;;5074999;28;20213;-68
2024/02/12 00:06:07;;;;;;;2.95;1.27;;;7.70;59.70;;;;;;5075216;28;20201;-68
2024/02/12 00:08:38;;;;;;;2.17;1.13;;;7.70;60.00;;;;;;5075086;28;20189;-69
2024/02/12 00:11:05;;;;;;;3.05;1.20;;;7.70;60.10;;;;;;5074825;28;20260;-69
2024/02/12 00:13:34;;;;;;;2.15;1.02;;;7.70;60.10;;;;;;5075056;28;20269;-68
2024/02/12 00:16:01;;;;;;;2.55;0.95;;;7.70;60.30;;;;;;5074089;28;20233;-69
2024/02/12 00:18:33;;;;;;;2.33;0.98;;;7.80;61.00;;;;;;5075121;28;20632;-69
2024/02/12 00:21:03;;;;;;;2.13;0.90;;;7.80;61.30;;;;;;5090909;28;20624;-69
2024/02/12 00:23:34;;;;;;;2.55;0.93;;;7.80;61.50;;;;;;5095738;28;20213;-69
2024/02/12 00:26:02;;;;;;;2.15;1.00;;;7.90;61.80;;;;;;5095427;28;20292;-69
2024/02/12 00:28:33;;;;;;;2.20;0.80;;;8.00;62.00;;;;;;5095238;28;20220;-69
2024/02/12 00:31:02;;;;;;;2.10;1.00;;;8.10;62.10;;;;;;5095360;28;20264;-69
2024/02/12 00:33:33;;;;;;;2.70;1.27;;;8.10;62.10;;;;;;5095533;28;20189;-69
2024/02/12 00:36:00;;;;;;;2.45;1.02;;;8.20;62.10;;;;;;5094953;28;20177;-69
2024/02/12 00:38:32;;;;;;;3.03;1.27;;;8.20;62.00;;;;;;5095343;28;20217;-69
2024/02/12 00:41:12;;;;;;;1.88;0.90;;;8.30;61.90;;;;;;5094816;28;20275;-69
2024/02/12 00:43:41;;;;;;;2.00;0.80;;;8.30;62.00;;;;;;5095286;28;20192;-69
2024/02/12 00:46:12;;;;;;;2.25;0.80;;;8.40;62.20;;;;;;5094371;28;20190;-69
2024/02/12 00:48:45;;;;;;;1.92;0.73;;;8.40;61.90;;;;;;5095179;28;20539;-69
2024/02/12 00:51:13;;;;;;;1.80;0.70;;;8.40;61.80;;;;;;5094764;28;20174;-69
2024/02/12 00:53:41;;;;;;;1.80;0.80;;;8.50;61.80;;;;;;5095099;28;20190;-69
2024/02/12 00:56:15;;;;;;;2.10;1.00;;;8.40;61.60;;;;;;5080448;28;20182;-69
2024/02/12 00:58:48;;;;;;;2.88;1.10;;;8.50;61.70;;;;;;5074355;28;20198;-69
2024/02/12 01:01:16;;;;;;;1.95;0.85;;;8.50;61.70;;;;;;5075066;28;20186;-69
2024/02/12 01:03:56;;;;;;;1.95;0.80;;;8.50;61.50;;;;;;5074604;28;20194;-69
2024/02/12 01:06:28;;;;;;;3.15;1.00;;;8.50;61.50;;;;;;5082777;28;20178;-69
2024/02/12 01:09:05;;;;;;;3.67;1.40;;;8.50;61.30;;;;;;5094852;28;20217;-69
2024/02/12 01:11:34;;;;;;;2.88;1.30;;;8.50;61.30;;;;;;5094434;28;20185;-69
2024/02/12 01:14:02;;;;;;;2.55;1.30;;;8.50;61.10;;;;;;5094494;28;20708;-69
2024/02/12 01:16:32;;;;;;;2.33;1.40;;;8.50;61.20;;;;;;5094334;28;20196;-69
2024/02/12 01:18:59;;;;;;;2.40;1.50;;;8.50;60.90;;;;;;5093636;28;20209;-69
2024/02/12 01:21:33;;;;;;;2.92;1.00;;;8.40;60.80;;;;;;5094618;28;20233;-69
2024/02/12 01:24:06;;;;;;;2.25;1.00;;;8.40;60.80;;;;;;5094292;28;20180;-69
2024/02/12 01:26:36;;;;;;;2.20;1.00;;;8.30;60.80;;;;;;5094865;28;20194;-69
2024/02/12 01:29:08;;;;;;;2.35;1.00;;;8.30;61.10;;;;;;5094119;28;20640;-69
2024/02/12 01:31:37;;;;;;;1.95;1.00;;;8.30;61.20;;;;;;5094768;28;20628;-69
2024/02/12 01:34:08;;;;;;;2.00;1.00;;;8.30;60.80;;;;;;5082658;28;20276;-69
2024/02/12 01:36:49;;;;;;;2.10;1.10;;;8.30;61.10;;;;;;5074111;28;20348;-69
2024/02/12 01:39:16;;;;;;;2.30;1.17;;;8.20;61.20;;;;;;5074093;28;20206;-69
2024/02/12 01:41:48;;;;;;;2.90;1.10;;;8.20;61.60;;;;;;5073615;28;20263;-69
2024/02/12 01:44:15;;;;;;;2.17;1.00;;;8.30;61.60;;;;;;5074108;28;20564;-69
2024/02/12 01:46:48;;;;;;;3.30;1.00;;;8.20;61.70;;;;;;5073383;28;20204;-69
2024/02/12 01:49:27;;;;;;;2.28;1.10;;;8.20;61.80;;;;;;5074067;28;20177;-69
2024/02/12 01:51:54;;;;;;;2.40;1.30;;;8.20;62.70;;;;;;5073672;28;20174;-69
2024/02/12 01:54:24;;;;;;;1.95;0.80;;;8.30;62.00;;;;;;5073595;28;20236;-69
2024/02/12 01:56:51;;;;;;;2.13;1.05;;;8.30;62.10;;;;;;5073818;28;20197;-68
2024/02/12 01:59:20;;;;;;;3.60;1.98;;;8.30;62.20;;;;;;5072796;28;20245;-69
2024/02/12 02:01:55;;;;;;;1.98;1.02;;;8.30;62.40;;;;;;5084673;28;20212;-69
2024/02/12 02:04:24;;;;;;;2.20;1.20;;;8.30;62.80;;;;;;5093936;28;20220;-69
2024/02/12 02:07:15;;;;;;;2.25;0.80;;;8.30;62.70;;;;;;5093851;28;20250;-69
2024/02/12 02:09:46;;;;;;;1.70;0.70;;;8.30;62.90;;;;;;5087218;28;20189;-69
2024/02/12 02:12:15;;;;;;;1.90;0.80;;;8.30;63.20;;;;;;5093966;28;20177;-69
2024/02/12 02:14:47;;;;;;;2.17;0.95;;;8.40;63.40;;;;;;5093733;28;20272;-69
2024/02/12 02:17:21;;;;;;;1.70;0.70;;;8.40;63.50;;;;;;5093330;28;20213;-69
2024/02/12 02:19:49;;;;;;;1.90;0.82;;;8.40;63.50;;;;;;5083836;28;20189;-69
2024/02/12 02:22:23;;;;;;;2.10;0.95;;;8.40;63.50;;;;;;5073330;28;20269;-69
2024/02/12 02:24:52;;;;;;;1.80;0.80;;;8.40;63.50;;;;;;5073510;28;20201;-69
2024/02/12 02:27:20;;;;;;;2.10;0.90;;;8.40;64.30;;;;;;5073634;28;20623;-69
2024/02/12 02:29:52;;;;;;;2.17;0.77;;;8.40;63.50;;;;;;5072913;28;20182;-69
2024/02/12 02:32:19;;;;;;;2.03;0.90;;;8.40;63.50;;;;;;5071501;28;20645;-69
2024/02/12 02:34:53;;;;;;;2.00;0.90;;;8.40;63.30;;;;;;5072844;28;20195;-69
2024/02/12 02:37:24;;;;;;;1.90;0.90;;;8.40;63.40;;;;;;5073274;28;20214;-69
2024/02/12 02:39:52;;;;;;;1.90;0.85;;;8.40;63.70;;;;;;5073405;28;20232;-69
2024/02/12 02:42:20;;;;;;;2.20;0.80;;;8.40;63.90;;;;;;5072795;28;20214;-69
2024/02/12 02:44:53;;;;;;;1.90;1.00;;;8.40;63.90;;;;;;5072981;28;20194;-69
2024/02/12 02:47:23;;;;;;;2.10;0.85;;;8.40;64.10;;;;;;5073344;28;20189;-68
2024/02/12 02:49:50;;;;;;;2.20;1.02;;;8.40;64.10;;;;;;5073380;28;20220;-69
2024/02/12 02:52:22;;;;;;;7.47;1.38;;;8.50;64.10;;;;;;5073543;28;20205;-69
2024/02/12 02:55:00;;;;;;;2.70;1.25;;;8.50;64.00;;;;;;5073294;28;20190;-69
2024/02/12 02:57:32;;;;;;;5.95;1.33;;;8.50;64.10;;;;;;5073407;28;20542;-69
2024/02/12 02:59:59;;;;;;;1.90;0.90;;;8.50;64.00;;;;;;5072957;28;20182;-69
2024/02/12 03:02:31;;;;;;;2.78;1.15;;;8.50;64.20;;;;;;5072863;28;20212;-69
2024/02/12 03:05:01;;;;;;;2.13;0.75;;;8.50;64.30;;;;;;5073229;28;20239;-69
2024/02/12 03:07:28;;;;;;;3.50;0.80;;;8.50;64.20;;;;;;5072840;28;20197;-69
2024/02/12 03:09:55;;;;;;;3.55;1.20;;;8.50;64.20;;;;;;5074943;28;20198;-69
2024/02/12 03:12:26;;;;;;;2.75;0.90;;;8.50;64.30;;;;;;5076517;28;20192;-69
2024/02/12 03:14:54;;;;;;;2.42;1.02;;;8.50;64.10;;;;;;5076797;28;20181;-69
2024/02/12 03:17:21;;;;;;;2.15;1.00;;;8.50;64.10;;;;;;5076987;28;20228;-69
2024/02/12 03:19:53;;;;;;;2.42;1.05;;;8.40;64.00;;;;;;5076706;28;20221;-69
2024/02/12 03:22:21;;;;;;;2.20;1.10;;;8.40;63.90;;;;;;5076043;28;20178;-69
2024/02/12 03:24:56;;;;;;;2.20;1.10;;;8.40;64.00;;;;;;5075532;28;20222;-69
2024/02/12 03:27:24;;;;;;;2.25;0.90;;;8.40;63.50;;;;;;5076625;28;20261;-69
2024/02/12 03:29:51;;;;;;;2.00;0.93;;;8.40;63.40;;;;;;5076479;28;20251;-69
2024/02/12 03:32:23;;;;;;;2.10;0.90;;;8.40;63.40;;;;;;5087525;28;20221;-69
2024/02/12 03:34:50;;;;;;;8.65;1.10;;;8.40;63.00;;;;;;5096358;28;20272;-69
2024/02/12 03:37:19;;;;;;;2.55;1.17;;;8.40;63.00;;;;;;5096338;28;20298;-68
2024/02/12 03:39:47;;;;;;;2.15;1.10;;;8.30;63.20;;;;;;5096245;28;20224;-69
2024/02/12 03:42:22;;;;;;;2.10;0.90;;;8.30;63.40;;;;;;5095372;28;20304;-68
2024/02/12 03:44:50;;;;;;;2.10;0.88;;;8.30;63.30;;;;;;5096472;28;20197;-69
2024/02/12 03:47:27;;;;;;;2.63;1.17;;;8.20;63.40;;;;;;5096607;28;20593;-68
2024/02/12 04:01:07;;;;;;;2.45;0.90;;;8.10;63.60;;;;;;5095308;28;20222;-69
2024/02/12 04:03:35;;;;;;;5.70;2.08;;;8.10;63.80;;;;;;5075857;28;20281;-69
2024/02/12 04:06:12;;;;;;;3.90;1.02;;;8.10;63.70;;;;;;5075524;28;20190;-69
2024/02/12 04:08:41;;;;;;;2.75;1.48;;;8.10;63.70;;;;;;5075863;28;20185;-69
2024/02/12 04:11:13;;;;;;;3.45;1.50;;;8.10;64.10;;;;;;5075130;28;20187;-69
2024/02/12 04:13:42;;;;;;;3.05;1.50;;;8.00;64.40;;;;;;5075816;28;20183;-69
2024/02/12 04:16:14;;;;;;;1.90;0.98;;;8.10;64.20;;;;;;5083794;28;20269;-70
2024/02/12 04:18:42;;;;;;;2.70;1.25;;;8.10;64.30;;;;;;5095829;28;20292;-69
2024/02/12 04:21:16;;;;;;;2.85;1.20;;;8.10;64.30;;;;;;5094036;28;20189;-69
2024/02/12 04:23:48;;;;;;;5.05;1.63;;;8.00;64.50;;;;;;5055551;28;20179;-69
2024/02/12 04:26:15;;;;;;;2.25;1.10;;;8.00;64.70;;;;;;5055196;28;20180;-69
2024/02/12 04:28:44;;;;;;;2.25;1.02;;;8.00;64.80;;;;;;5055647;28;20203;-69
2024/02/12 04:31:14;;;;;;;2.20;1.20;;;8.00;64.90;;;;;;5082021;28;20534;-69
2024/02/12 04:33:49;;;;;;;2.60;1.23;;;8.10;64.60;;;;;;5074671;28;20571;-68
2024/02/12 04:36:23;;;;;;;2.58;1.50;;;8.10;65.00;;;;;;5075305;28;20177;-69
2024/02/12 04:38:55;;;;;;;1.90;0.80;;;8.10;65.00;;;;;;5075486;28;20206;-69
2024/02/12 04:41:24;;;;;;;2.08;0.85;;;8.10;65.00;;;;;;5074584;28;20226;-69
2024/02/12 04:43:53;;;;;;;1.90;0.82;;;8.10;65.00;;;;;;5074706;28;20194;-69
2024/02/12 04:46:22;;;;;;;2.30;0.98;;;8.10;64.70;;;;;;5087104;28;20213;-69
2024/02/12 04:48:58;;;;;;;1.90;0.80;;;8.20;64.80;;;;;;5095226;28;20636;-69
2024/02/12 04:51:31;;;;;;;3.55;1.00;;;8.20;65.00;;;;;;5094266;28;20189;-69
2024/02/12 04:54:03;;;;;;;2.10;1.10;;;8.20;65.20;;;;;;5095229;28;20185;-69
2024/02/12 04:56:30;;;;;;;2.40;0.95;;;8.20;65.40;;;;;;5094812;28;20185;-69
2024/02/12 04:59:10;;;;;;;2.03;0.80;;;8.20;65.70;;;;;;5094781;28;20236;-69
2024/02/12 05:01:39;;;;;;;1.80;0.80;;;8.30;66.10;;;;;;5089870;28;20176;-69
2024/02/12 05:04:08;;;;;;;1.70;0.75;;;8.30;66.20;;;;;;5074345;28;20226;-69
2024/02/12 05:06:36;;;;;;;2.30;1.08;;;8.30;66.20;;;;;;5074237;28;20644;-69
2024/02/12 05:09:15;;;;;;;2.45;0.95;;;8.30;66.30;;;;;;5074499;28;20202;-69
2024/02/12 05:11:44;;;;;;;2.10;0.70;;;8.40;66.40;;;;;;5087045;28;20181;-69
2024/02/12 05:14:17;;;;;;;2.42;1.08;;;8.40;66.60;;;;;;5074140;28;20664;-69
2024/02/12 05:16:50;;;;;;;2.05;0.93;;;8.40;66.60;;;;;;5074141;28;20185;-69
2024/02/12 05:24:52;;;;;;;1.70;0.77;;;8.40;66.40;;;;;;5094404;28;20200;-69
2024/02/12 05:27:36;;;;;;;2.00;0.90;;;8.50;66.30;;;;;;5080976;28;20228;-69
2024/02/12 05:30:06;;;;;;;1.90;0.82;;;8.50;66.40;;;;;;5091350;28;20273;-69
2024/02/12 05:32:36;;;;;;;2.20;1.15;;;8.50;66.20;;;;;;5094285;28;20585;-69
2024/02/12 05:35:05;;;;;;;3.65;0.82;;;8.50;66.10;;;;;;5094379;28;20189;-69
2024/02/12 05:37:38;;;;;;;2.50;0.85;;;8.50;66.10;;;;;;5093759;28;20612;-69
2024/02/12 05:40:07;;;;;;;2.25;1.10;;;8.50;66.40;;;;;;5083572;28;20212;-69
2024/02/12 05:42:40;;;;;;;1.90;1.10;;;8.50;66.20;;;;;;5073689;28;20628;-69
2024/02/12 05:45:09;;;;;;;1.90;0.80;;;8.50;66.30;;;;;;5073942;28;20205;-69
2024/02/12 05:47:41;;;;;;;2.10;0.80;;;8.50;66.40;;;;;;5072979;28;20182;-69
2024/02/12 05:50:09;;;;;;;2.30;1.00;;;8.60;66.30;;;;;;5073993;28;20285;-69
2024/02/12 05:52:46;;;;;;;2.58;1.60;;;8.60;65.80;;;;;;5073859;28;20189;-69
2024/02/12 05:55:16;;;;;;;2.10;1.10;;;8.60;66.10;;;;;;5073878;28;20174;-69
2024/02/12 05:57:48;;;;;;;2.60;1.40;;;8.60;66.20;;;;;;5072822;28;20224;-69
2024/02/12 06:00:31;;;;;;;2.10;0.90;;;8.60;66.20;;;;;;5073280;28;20250;-69
2024/02/12 06:02:59;;;;;;;7.70;4.18;;;8.60;66.10;;;;;;5073447;28;20625;-69
2024/02/12 06:05:27;;;;;;;2.88;1.50;;;8.60;66.10;;;;;;5073440;28;20724;-69
2024/02/12 06:07:54;;;;;;;2.03;1.10;;;8.60;66.20;;;;;;5073404;28;20304;-69
2024/02/12 06:10:23;;;;;;;2.70;1.20;;;8.60;66.10;;;;;;5073663;28;20213;-69
2024/02/12 06:12:56;;;;;;;2.33;1.10;;;8.60;66.00;;;;;;5073603;28;20202;-69
2024/02/12 06:15:23;;;;;;;2.38;1.20;;;8.60;66.00;;;;;;5073824;28;20178;-68
2024/02/12 06:17:55;;;;;;;2.05;1.00;;;8.60;66.00;;;;;;5073251;28;20248;-69
2024/02/12 06:20:23;;;;;;;2.42;1.27;;;8.50;66.30;;;;;;5072873;28;20698;-69
2024/02/12 06:22:50;;;;;;;2.00;1.00;;;8.50;66.20;;;;;;5073114;28;20194;-69
2024/02/12 06:25:24;;;;;;;2.10;1.00;;;8.60;66.30;;;;;;5073101;28;20201;-69
2024/02/12 06:27:59;;;;;;;2.10;1.00;;;8.60;66.10;;;;;;5073655;28;20194;-69
2024/02/12 06:30:35;;;;;;;2.45;0.95;;;8.50;65.80;;;;;;5070594;28;20184;-69
2024/02/12 06:33:11;;;;;;;1.95;0.88;;;8.50;66.30;;;;;;5072891;28;20217;-69
2024/02/12 06:35:40;;;;;;;2.20;0.90;;;8.50;66.70;;;;;;5072605;28;20221;-69
2024/02/12 06:38:07;;;;;;;4.25;0.80;;;8.50;66.40;;;;;;5071520;28;20212;-68
2024/02/12 06:40:34;;;;;;;2.05;0.82;;;8.50;66.20;;;;;;5071581;28;20257;-69
2024/02/12 06:43:03;;;;;;;4.90;1.05;;;8.50;66.10;;;;;;5072214;28;20187;-69
2024/02/12 06:45:30;;;;;;;1.77;0.73;;;8.50;66.50;;;;;;5075360;28;20537;-69
2024/02/12 06:47:59;;;;;;;2.53;1.00;;;8.50;66.50;;;;;;5076375;28;20198;-69
2024/02/12 06:50:31;;;;;;;2.90;1.45;;;8.50;66.20;;;;;;5076473;28;20186;-69
2024/02/12 06:53:00;;;;;;;2.47;1.30;;;8.50;66.20;;;;;;5076449;28;20179;-69
2024/02/12 06:55:28;;;;;;;3.05;1.58;;;8.50;66.50;;;;;;5076590;28;20186;-69
2024/02/12 06:58:01;;;;;;;2.40;1.35;;;8.60;65.80;;;;;;5076280;28;20222;-69
2024/02/12 07:00:30;;;;;;;4.07;1.30;;;8.50;65.80;;;;;;5075999;28;20198;-69
2024/02/12 07:02:59;;;;;;;2.72;1.50;;;8.50;66.20;;;;;;5075805;28;20225;-69
2024/02/12 07:05:33;;;;;;;6.85;1.83;;;8.60;66.40;;;;;;5075856;28;20232;-69
2024/02/12 07:08:02;;;;;;;3.38;2.15;;;8.60;66.10;;;;;;5075887;28;20186;-69
2024/02/12 07:10:34;;;;;;;2.63;1.33;;;8.60;66.20;;;;;;5075074;28;20229;-69
2024/02/12 07:13:04;;;;;;;2.38;1.42;;;8.60;66.10;;;;;;5095984;28;20177;-69
2024/02/12 07:15:37;;;;;;;2.10;1.08;;;8.50;66.30;;;;;;5096209;28;20250;-69
2024/02/12 07:18:05;;;;;;;2.20;1.27;;;8.50;66.60;;;;;;5096299;28;20550;-69
2024/02/12 07:20:39;;;;;;;2.38;1.15;;;8.60;66.70;;;;;;5077834;28;20696;-69
2024/02/12 07:23:08;;;;;;;2.00;0.80;;;8.60;66.20;;;;;;5076299;28;20264;-69
2024/02/12 07:25:44;;;;;;;2.40;1.00;;;8.60;66.10;;;;;;5075381;28;20183;-69
2024/02/12 07:28:13;;;;;;;5.03;1.52;;;8.60;66.60;;;;;;5071909;28;20671;-69
2024/02/12 07:30:45;;;;;;;3.13;1.80;;;8.60;66.70;;;;;;5073954;28;20492;-69
2024/02/12 07:33:23;;;;;;;3.08;1.38;;;8.60;66.70;;;;;;5046753;28;20427;-70
2024/02/12 07:35:51;;;;;;;2.40;1.30;;;8.70;66.60;;;;;;5053794;28;20571;-69
2024/02/12 07:38:20;;;;;;;2.97;1.20;;;8.70;65.90;;;;;;5065307;28;20703;-69
2024/02/12 07:40:48;;;;;;;2.65;1.42;;;8.80;65.50;;;;;;5071141;28;20222;-70
2024/02/12 07:43:15;;;;;;;2.00;1.10;;;8.80;65.50;;;;;;5067583;28;20205;-69
2024/02/12 07:45:44;;;;;;;1.95;0.90;;;8.80;66.00;;;;;;5069798;28;20260;-69
2024/02/12 07:48:12;;;;;;;2.10;1.00;;;8.80;65.90;;;;;;5075170;28;20221;-69
2024/02/12 07:50:45;;;;;;;2.28;1.10;;;8.90;65.90;;;;;;5074950;28;20202;-69
2024/02/12 07:53:13;;;;;;;2.40;1.13;;;8.90;65.90;;;;;;5074532;28;20186;-70
2024/02/12 07:55:42;;;;;;;1.80;0.75;;;9.00;65.90;;;;;;5073311;28;20539;-68
2024/02/12 07:58:11;;;;;;;2.28;0.90;;;9.10;65.80;;;;;;5075597;28;20277;-69
2024/02/12 08:00:43;;;;;;;1.90;0.90;;;9.10;65.60;;;;;;5075556;28;20257;-69
2024/02/12 08:03:10;;;;;;;2.38;1.35;;;9.10;65.30;;;;;;5075591;28;20218;-69
2024/02/12 08:05:42;;;;;;;2.20;0.98;;;9.20;64.80;;;;;;5075350;28;20193;-69
2024/02/12 08:08:17;;;;;;;1.80;0.70;;;9.20;64.50;;;;;;5075703;28;20542;-69
2024/02/12 08:10:47;;;;;;;2.10;0.93;;;9.20;64.70;;;;;;5075854;28;20189;-70
2024/02/12 08:13:17;;;;;;;1.98;0.68;;;9.30;64.50;;;;;;5075810;28;20222;-69
2024/02/12 08:15:49;;;;;;;2.00;0.80;;;9.40;63.90;;;;;;5075355;28;20210;-69
2024/02/12 08:18:17;;;;;;;1.90;0.75;;;9.40;63.90;;;;;;5075161;28;20189;-69
2024/02/12 08:20:44;;;;;;;2.10;1.00;;;9.50;64.00;;;;;;5075272;28;20593;-69
2024/02/12 08:23:10;;;;;;;2.00;1.10;;;9.60;63.40;;;;;;5074940;28;20277;-69
2024/02/12 08:25:38;;;;;;;3.00;1.00;;;9.80;63.30;;;;;;5074932;28;20229;-69
2024/02/12 08:28:07;;;;;;;2.45;1.10;;;9.80;63.00;;;;;;5074831;28;20201;-69
2024/02/12 08:30:36;;;;;;;2.30;0.90;;;9.90;62.50;;;;;;5075284;28;20193;-69
2024/02/12 08:33:05;;;;;;;2.05;0.95;;;9.90;62.10;;;;;;5075236;28;20602;-69
2024/02/12 08:35:34;;;;;;;1.90;0.80;;;9.90;61.50;;;;;;5075116;28;20197;-69
2024/02/12 08:38:03;;;;;;;1.95;0.70;;;9.90;61.60;;;;;;5074559;28;20190;-69
2024/02/12 08:40:30;;;;;;;1.80;0.70;;;9.90;61.60;;;;;;5073289;28;20607;-69
2024/02/12 08:42:58;;;;;;;2.00;0.75;;;9.80;61.20;;;;;;5074719;28;20187;-69
2024/02/12 08:45:27;;;;;;;1.88;0.70;;;9.80;60.60;;;;;;5074773;28;20194;-69
2024/02/12 08:47:54;;;;;;;2.22;0.90;;;9.80;60.50;;;;;;5073878;28;20280;-69
2024/02/12 08:50:23;;;;;;;1.80;0.73;;;9.80;60.90;;;;;;5074305;28;20239;-69
2024/02/12 08:52:53;;;;;;;2.80;0.90;;;9.80;61.30;;;;;;5074635;28;20359;-69
2024/02/12 08:55:20;;;;;;;2.00;0.82;;;9.80;61.60;;;;;;5074437;28;20189;-69
2024/02/12 08:57:52;;;;;;;1.87;0.80;;;9.90;61.20;;;;;;5074203;28;20222;-69
2024/02/12 09:00:21;;;;;;;1.98;0.80;;;9.90;61.30;;;;;;5074504;28;20468;-69
2024/02/12 09:02:50;;;;;;;2.25;0.90;;;9.90;60.70;;;;;;5074580;28;20186;-69
2024/02/12 09:05:17;;;;;;;2.08;0.85;;;9.90;61.00;;;;;;5074255;28;20236;-69
2024/02/12 09:07:46;;;;;;;1.90;0.90;;;9.90;61.30;;;;;;5074022;28;20281;-69
2024/02/12 09:10:15;;;;;;;2.00;0.85;;;10.00;59.90;;;;;;5073940;28;20701;-69
2024/02/12 09:12:46;;;;;;;2.50;1.00;;;10.00;59.80;;;;;;5074264;28;20194;-69
2024/02/12 09:15:19;;;;;;;1.90;0.90;;;10.00;60.00;;;;;;5072162;28;20257;-69
2024/02/12 09:17:46;;;;;;;2.50;1.10;;;10.00;59.70;;;;;;5074276;28;20239;-68
2024/02/12 09:20:15;;;;;;;2.72;1.33;;;10.10;59.70;;;;;;5073786;28;20304;-69
2024/02/12 09:22:51;;;;;;;2.10;0.80;;;10.10;59.50;;;;;;5074146;28;20285;-69
2024/02/12 09:25:20;;;;;;;2.30;1.00;;;10.10;59.30;;;;;;5074008;28;20516;-68
2024/02/12 09:27:49;;;;;;;3.03;1.10;;;10.10;59.50;;;;;;5073648;28;20203;-68
2024/02/12 09:30:21;;;;;;;2.65;0.90;;;10.10;59.50;;;;;;5073635;28;20197;-69
2024/02/12 09:32:51;;;;;;;2.33;1.15;;;10.10;59.40;;;;;;5073989;28;20186;-69
2024/02/12 09:35:20;;;;;;;2.85;1.20;;;10.10;59.70;;;;;;5074529;28;20174;-69
2024/02/12 09:37:47;;;;;;;2.35;1.15;;;10.10;60.00;;;;;;5073776;28;20194;-68
2024/02/12 09:40:25;;;;;;;5.47;1.60;;;10.20;60.20;;;;;;5073115;28;20672;-69
2024/02/12 09:42:56;;;;;;;3.65;0.90;;;10.30;60.00;;;;;;5073468;28;20714;-69
2024/02/12 09:45:27;;;;;;;2.80;1.50;;;10.60;60.10;;;;;;5073587;28;20649;-69
2024/02/12 09:48:00;;;;;;;3.08;1.48;;;10.80;58.80;;;;;;5073293;28;20174;-69
2024/02/12 09:50:29;;;;;;;2.40;1.20;;;11.00;58.40;;;;;;5073675;28;20548;-69
2024/02/12 09:52:58;;;;;;;2.67;1.10;;;11.00;58.70;;;;;;5073995;28;20428;-69
2024/02/12 09:55:27;;;;;;;2.53;1.20;;;11.10;58.90;;;;;;5073272;28;20466;-69
2024/02/12 09:57:54;;;;;;;2.00;1.10;;;11.20;58.60;;;;;;5073628;28;20780;-69
2024/02/12 10:00:26;;;;;;;2.93;1.50;;;11.30;58.10;;;;;;5073148;28;20572;-69
2024/02/12 10:03:07;;;;;;;4.13;1.13;;;11.40;57.20;;;;;;5073401;28;20895;-68
2024/02/12 10:05:42;;;;;;;2.87;1.20;;;11.40;56.90;;;;;;5073504;28;20420;-69
2024/02/12 10:08:20;;;;;;;2.20;1.00;;;11.40;56.60;;;;;;5073450;28;20460;-69
2024/02/12 10:10:53;;;;;;;2.20;1.33;;;11.30;56.90;;;;;;5073331;28;20455;-69
2024/02/12 10:13:21;;;;;;;2.60;1.13;;;11.30;57.30;;;;;;5073089;28;20770;-69
2024/02/12 10:15:57;;;;;;;3.60;0.93;;;11.20;57.50;;;;;;5073594;28;20191;-68
2024/02/12 10:18:26;;;;;;;2.47;1.30;;;11.30;57.50;;;;;;5072847;28;20460;-69
2024/02/12 10:20:55;;;;;;;2.83;1.50;;;11.20;57.50;;;;;;5072918;28;20472;-69
2024/02/12 10:23:22;;;;;;;2.50;1.03;;;11.20;57.30;;;;;;5072917;28;20432;-69
2024/02/12 10:25:51;;;;;;;2.20;1.00;;;11.30;57.00;;;;;;5073231;28;20459;-69
2024/02/12 10:28:23;;;;;;;3.17;1.43;;;11.30;57.00;;;;;;5073497;28;20519;-69
2024/02/12 10:30:52;;;;;;;2.07;1.07;;;11.30;57.20;;;;;;5072951;28;20510;-69
2024/02/12 10:33:23;;;;;;;2.80;1.10;;;11.30;57.50;;;;;;5073222;28;20432;-69
2024/02/12 10:36:02;;;;;;;2.07;1.03;;;11.30;57.40;;;;;;5073196;28;20432;-69
2024/02/12 10:38:31;;;;;;;3.10;1.40;;;11.40;57.70;;;;;;5072870;28;20514;-69
2024/02/12 10:41:15;;;;;;;2.27;1.00;;;11.40;57.70;;;;;;5072862;28;20849;-69
2024/02/12 10:43:44;;;;;;;3.33;1.77;;;11.40;57.80;;;;;;5073048;28;20428;-69
2024/02/12 10:46:14;;;;;;;8.80;3.37;;;11.50;57.40;;;;;;5072698;28;20440;-69
2024/02/12 10:48:44;;;;;;;10.20;3.23;;;11.50;57.10;;;;;;5073015;28;20435;-68
2024/02/12 10:51:19;;;;;;;8.47;2.00;;;11.50;56.50;;;;;;5072926;28;20448;-69
2024/02/12 10:53:46;;;;;;;3.17;1.30;;;11.50;56.70;;;;;;5072783;28;20829;-69
2024/02/12 10:56:14;;;;;;;3.90;2.30;;;11.50;56.70;;;;;;5072633;28;20432;-69
2024/02/12 10:58:45;;;;;;;3.93;1.30;;;11.50;56.60;;;;;;5072507;28;20440;-69
2024/02/12 11:01:13;;;;;;;2.53;1.10;;;11.50;56.30;;;;;;5072532;28;20822;-69
2024/02/12 11:03:42;;;;;;;3.83;1.30;;;11.50;56.30;;;;;;5072323;28;20527;-69
2024/02/12 11:06:12;;;;;;;2.50;1.33;;;11.50;56.20;;;;;;5072662;28;20518;-69
2024/02/12 11:08:41;;;;;;;2.40;1.30;;;11.50;56.10;;;;;;5072525;28;20432;-69
2024/02/12 11:11:15;;;;;;;3.00;1.50;;;11.50;56.20;;;;;;5072791;28;20483;-69
2024/02/12 11:13:48;;;;;;;2.10;1.07;;;11.50;56.30;;;;;;5072884;28;20427;-68
2024/02/12 11:16:17;;;;;;;3.13;1.00;;;11.50;56.20;;;;;;5072680;28;20413;-68
2024/02/12 11:18:44;;;;;;;3.27;1.00;;;11.50;55.50;;;;;;5072627;28;20518;-68
2024/02/12 11:21:16;;;;;;;2.73;1.47;;;11.50;55.60;;;;;;5072283;28;20507;-68
2024/02/12 11:23:48;;;;;;;2.43;1.13;;;11.40;55.90;;;;;;5072403;28;20854;-69
2024/02/12 11:26:15;;;;;;;6.43;1.37;;;11.40;56.20;;;;;;5072432;28;20429;-69
2024/02/12 11:28:54;;;;;;;2.53;1.13;;;11.40;55.90;;;;;;5072338;28;20526;-69
2024/02/12 11:31:23;;;;;;;3.73;1.10;;;11.40;56.00;;;;;;5075185;28;20424;-69
2024/02/12 11:33:50;;;;;;;4.10;2.00;;;11.40;56.10;;;;;;5076151;28;20514;-69
2024/02/12 11:36:21;;;;;;;2.90;1.30;;;11.40;55.80;;;;;;5075844;28;20489;-69
2024/02/12 11:38:53;;;;;;;3.33;1.50;;;11.30;56.00;;;;;;5075820;28;20509;-68
2024/02/12 11:41:20;;;;;;;2.67;1.00;;;11.30;56.40;;;;;;5075604;28;20575;-69
2024/02/12 11:43:52;;;;;;;2.23;0.90;;;11.30;56.40;;;;;;5075471;28;20460;-69
2024/02/12 11:46:19;;;;;;;2.17;1.00;;;11.40;56.20;;;;;;5074470;28;20911;-69
2024/02/12 11:48:45;;;;;;;2.57;1.20;;;11.40;55.90;;;;;;5075602;28;20460;-69
2024/02/12 11:51:19;;;;;;;3.43;1.20;;;11.40;55.50;;;;;;5075891;28;20464;-69
2024/02/12 11:53:50;;;;;;;6.33;1.20;;;11.40;55.70;;;;;;5075539;28;20930;-68
2024/02/12 11:56:20;;;;;;;2.37;1.27;;;11.40;56.30;;;;;;5075542;28;20507;-69
2024/02/12 11:58:51;;;;;;;2.50;1.20;;;11.40;56.70;;;;;;5075711;28;20475;-69
2024/02/12 12:01:18;;;;;;;2.13;1.13;;;11.40;56.80;;;;;;5075947;28;20490;-69
2024/02/12 12:03:45;;;;;;;2.50;1.20;;;11.50;56.70;;;;;;5075678;28;20854;-69
2024/02/12 12:06:17;;;;;;;2.17;1.00;;;11.60;57.00;;;;;;5075583;28;20490;-68
2024/02/12 12:08:43;;;;;;;2.13;1.00;;;11.60;56.70;;;;;;5075584;28;20416;-68
2024/02/12 12:11:11;;;;;;;2.10;1.10;;;11.70;55.60;;;;;;5074535;28;20478;-69
2024/02/12 12:13:39;;;;;;;3.37;1.37;;;11.70;55.60;;;;;;5075597;28;20428;-69
2024/02/12 12:16:07;;;;;;;2.10;1.03;;;11.70;55.50;;;;;;5075312;28;20442;-69
2024/02/12 12:18:34;;;;;;;2.77;1.20;;;11.80;55.20;;;;;;5075387;28;20847;-69
2024/02/12 12:21:01;;;;;;;4.50;1.50;;;11.90;55.60;;;;;;5075013;28;20480;-69
2024/02/12 12:23:30;;;;;;;9.27;2.00;;;12.00;55.50;;;;;;5080364;28;20471;-69
2024/02/12 12:25:59;;;;;;;2.60;1.60;;;12.10;54.60;;;;;;5094933;28;20466;-69
2024/02/12 12:28:27;;;;;;;2.57;1.20;;;12.10;54.70;;;;;;5071239;28;20436;-69
2024/02/12 12:30:55;;;;;;;4.30;1.10;;;12.20;54.30;;;;;;5073147;28;20437;-69
2024/02/12 12:33:24;;;;;;;4.40;1.07;;;12.30;54.40;;;;;;5084157;28;20440;-69
2024/02/12 12:35:51;;;;;;;2.90;1.50;;;12.50;54.40;;;;;;5072295;28;20755;-70
2024/02/12 12:38:19;;;;;;;2.30;1.00;;;12.70;53.80;;;;;;5074341;28;20574;-69
2024/02/12 12:40:47;;;;;;;2.10;0.90;;;12.90;53.00;;;;;;5073147;28;20476;-69
2024/02/12 12:43:20;;;;;;;2.63;1.20;;;13.00;52.50;;;;;;5073670;28;20512;-69
2024/02/12 12:45:47;;;;;;;2.20;1.00;;;13.00;52.50;;;;;;5075047;28;20767;-69
2024/02/12 12:48:16;;;;;;;3.67;1.20;;;13.00;52.30;;;;;;5094198;28;20459;-69
2024/02/12 12:50:43;;;;;;;2.67;1.17;;;13.00;52.30;;;;;;5078262;28;20451;-69
2024/02/12 12:53:10;;;;;;;2.10;0.90;;;12.90;52.40;;;;;;5073942;28;20432;-69
2024/02/12 12:55:37;;;;;;;1.90;0.87;;;12.80;52.60;;;;;;5074666;28;20810;-69
2024/02/12 12:58:05;;;;;;;1.90;0.70;;;12.70;52.70;;;;;;5074495;28;20460;-69
2024/02/12 13:00:36;;;;;;;2.43;0.83;;;12.70;52.60;;;;;;5074607;28;20443;-69
2024/02/12 13:03:03;;;;;;;2.10;1.00;;;12.70;52.60;;;;;;5072598;28;20523;-70
2024/02/12 13:05:33;;;;;;;2.70;0.87;;;12.70;52.70;;;;;;5073788;28;20915;-69
2024/02/12 13:08:00;;;;;;;2.10;0.90;;;12.70;52.80;;;;;;5074509;28;20440;-69
2024/02/12 13:10:29;;;;;;;2.10;1.00;;;12.70;52.80;;;;;;5074021;28;20468;-70
2024/02/12 13:12:56;;;;;;;2.23;1.00;;;12.70;52.80;;;;;;5073769;28;20489;-69
2024/02/12 13:15:24;;;;;;;2.03;0.70;;;12.70;52.80;;;;;;5073803;28;20439;-70
2024/02/12 13:17:52;;;;;;;3.50;0.70;;;12.80;53.20;;;;;;5073824;28;20485;-69
2024/02/12 13:20:22;;;;;;;2.50;0.90;;;12.90;52.70;;;;;;5073966;28;20440;-69
2024/02/12 13:22:54;;;;;;;2.10;0.70;;;12.90;52.60;;;;;;5073989;28;20463;-69
2024/02/12 13:25:26;;;;;;;2.23;0.80;;;13.00;52.00;;;;;;5073448;28;20432;-70